sensor_id;sensor_type;location;lat;lon;timestamp;pressure;altitude;pressure_sealevel;temperature;humidity
65276;BME280;51875;49.994;14.052;2023-12-20T00:00:41;98009.72;;;5.76;100.00
65276;BME280;51875;49.994;14.052;2023-12-20T00:01:57;98007.31;;;5.63;100.00
65276;BME280;51875;49.994;14.052;2023-12-20T00:03:13;98015.84;;;5.70;100.00
65276;BME280;51875;49.994;14.052;2023-12-20T00:04:28;98013.31;;;5.65;100.00
65276;BME280;51875;49.994;14.052;2023-12-20T00:05:45;98016.84;;;5.63;100.00
65276;BME280;51875;49.994;14.052;2023-12-20T00:07:01;98018.63;;;5.59;100.00
65276;BME280;51875;49.994;14.052;2023-12-20T00:08:17;98016.09;;;5.56;100.00
65276;BME280;51875;49.994;14.052;2023-12-20T00:09:33;98015.03;;;5.70;100.00
65276;BME280;51875;49.994;14.052;2023-12-20T00:10:49;98014.00;;;5.80;100.00
65276;BME280;51875;49.994;14.052;2023-12-20T00:12:05;98006.28;;;5.75;100.00
65276;BME280;51875;49.994;14.052;2023-12-20T00:13:21;98012.38;;;5.71;100.00
65276;BME280;51875;49.994;14.052;2023-12-20T00:14:37;98010.78;;;5.64;100.00
65276;BME280;51875;49.994;14.052;2023-12-20T00:15:53;98010.53;;;5.78;100.00
65276;BME280;51875;49.994;14.052;2023-12-20T00:17:09;97997.84;;;5.59;100.00
65276;BME280;51875;49.994;14.052;2023-12-20T00:18:25;98001.22;;;5.66;100.00
65276;BME280;51875;49.994;14.052;2023-12-20T00:19:41;98000.38;;;5.64;100.00
65276;BME280;51875;49.994;14.052;2023-12-20T00:20:57;98008.94;;;5.69;100.00
65276;BME280;51875;49.994;14.052;2023-12-20T00:22:13;98020.56;;;5.43;100.00
65276;BME280;51875;49.994;14.052;2023-12-20T00:23:29;98010.06;;;5.53;100.00
65276;BME280;51875;49.994;14.052;2023-12-20T00:24:45;98015.31;;;5.48;100.00
65276;BME280;51875;49.994;14.052;2023-12-20T00:26:02;98021.28;;;5.56;100.00
65276;BME280;51875;49.994;14.052;2023-12-20T00:27:18;98009.25;;;5.49;100.00
65276;BME280;51875;49.994;14.052;2023-12-20T00:28:34;98010.19;;;5.43;100.00
65276;BME280;51875;49.994;14.052;2023-12-20T00:29:50;98010.16;;;5.46;100.00
65276;BME280;51875;49.994;14.052;2023-12-20T00:31:06;97999.13;;;5.32;100.00
65276;BME280;51875;49.994;14.052;2023-12-20T00:32:22;98006.50;;;5.60;100.00
65276;BME280;51875;49.994;14.052;2023-12-20T00:33:38;98009.00;;;5.66;100.00
65276;BME280;51875;49.994;14.052;2023-12-20T00:34:55;98016.97;;;5.55;100.00
65276;BME280;51875;49.994;14.052;2023-12-20T00:36:11;98011.72;;;5.60;100.00
65276;BME280;51875;49.994;14.052;2023-12-20T00:37:27;97993.47;;;5.63;100.00
65276;BME280;51875;49.994;14.052;2023-12-20T00:38:43;97988.41;;;5.55;100.00
65276;BME280;51875;49.994;14.052;2023-12-20T00:39:59;97986.44;;;5.70;100.00
65276;BME280;51875;49.994;14.052;2023-12-20T00:41:15;97984.66;;;5.73;100.00
65276;BME280;51875;49.994;14.052;2023-12-20T00:42:32;97983.03;;;5.66;100.00
65276;BME280;51875;49.994;14.052;2023-12-20T00:43:48;97974.88;;;5.31;100.00
65276;BME280;51875;49.994;14.052;2023-12-20T00:45:05;97978.91;;;5.53;100.00
65276;BME280;51875;49.994;14.052;2023-12-20T00:46:21;97970.41;;;5.41;100.00
65276;BME280;51875;49.994;14.052;2023-12-20T00:47:37;97968.56;;;5.49;100.00
65276;BME280;51875;49.994;14.052;2023-12-20T00:48:52;97969.88;;;5.77;100.00
65276;BME280;51875;49.994;14.052;2023-12-20T00:50:09;97973.00;;;5.41;100.00
65276;BME280;51875;49.994;14.052;2023-12-20T00:51:25;97963.56;;;5.39;100.00
65276;BME280;51875;49.994;14.052;2023-12-20T00:52:41;97961.78;;;5.39;100.00
65276;BME280;51875;49.994;14.052;2023-12-20T00:53:57;97962.50;;;5.52;100.00
65276;BME280;51875;49.994;14.052;2023-12-20T00:55:13;97969.53;;;5.44;100.00
65276;BME280;51875;49.994;14.052;2023-12-20T00:56:29;97964.22;;;5.51;100.00
65276;BME280;51875;49.994;14.052;2023-12-20T00:57:45;97951.41;;;5.37;100.00
65276;BME280;51875;49.994;14.052;2023-12-20T00:59:01;97937.28;;;5.57;100.00
65276;BME280;51875;49.994;14.052;2023-12-20T01:00:17;97946.75;;;5.61;100.00
65276;BME280;51875;49.994;14.052;2023-12-20T01:01:33;97950.91;;;5.72;100.00
65276;BME280;51875;49.994;14.052;2023-12-20T01:02:49;97946.91;;;5.52;100.00
65276;BME280;51875;49.994;14.052;2023-12-20T01:04:07;97952.16;;;5.47;100.00
65276;BME280;51875;49.994;14.052;2023-12-20T01:05:23;97956.38;;;5.55;100.00
65276;BME280;51875;49.994;14.052;2023-12-20T01:06:39;97953.88;;;5.47;100.00
65276;BME280;51875;49.994;14.052;2023-12-20T01:07:55;97956.34;;;5.56;100.00
65276;BME280;51875;49.994;14.052;2023-12-20T01:09:11;97943.38;;;5.55;100.00
65276;BME280;51875;49.994;14.052;2023-12-20T01:10:26;97939.75;;;5.65;100.00
65276;BME280;51875;49.994;14.052;2023-12-20T01:11:44;97937.53;;;5.42;100.00
65276;BME280;51875;49.994;14.052;2023-12-20T01:13:02;97933.81;;;5.57;100.00
65276;BME280;51875;49.994;14.052;2023-12-20T01:14:18;97934.81;;;5.49;100.00
65276;BME280;51875;49.994;14.052;2023-12-20T01:15:34;97933.88;;;5.55;100.00
65276;BME280;51875;49.994;14.052;2023-12-20T01:16:50;97927.94;;;5.47;100.00
65276;BME280;51875;49.994;14.052;2023-12-20T01:18:06;97926.06;;;5.55;100.00
65276;BME280;51875;49.994;14.052;2023-12-20T01:19:22;97925.50;;;5.36;100.00
65276;BME280;51875;49.994;14.052;2023-12-20T01:20:39;97922.66;;;5.51;100.00
65276;BME280;51875;49.994;14.052;2023-12-20T01:21:55;97916.38;;;5.67;100.00
65276;BME280;51875;49.994;14.052;2023-12-20T01:23:11;97931.47;;;5.43;100.00
65276;BME280;51875;49.994;14.052;2023-12-20T01:24:27;97926.44;;;5.32;100.00
65276;BME280;51875;49.994;14.052;2023-12-20T01:25:43;97926.50;;;5.27;100.00
65276;BME280;51875;49.994;14.052;2023-12-20T01:26:59;97928.09;;;5.36;100.00
65276;BME280;51875;49.994;14.052;2023-12-20T01:28:15;97908.16;;;5.40;100.00
65276;BME280;51875;49.994;14.052;2023-12-20T01:29:31;97913.25;;;5.44;100.00
65276;BME280;51875;49.994;14.052;2023-12-20T01:30:47;97904.38;;;5.58;100.00
65276;BME280;51875;49.994;14.052;2023-12-20T01:32:03;97908.81;;;5.51;100.00
65276;BME280;51875;49.994;14.052;2023-12-20T01:33:19;97897.47;;;5.58;100.00
65276;BME280;51875;49.994;14.052;2023-12-20T01:34:35;97897.78;;;5.38;100.00
65276;BME280;51875;49.994;14.052;2023-12-20T01:35:51;97908.22;;;5.33;100.00
65276;BME280;51875;49.994;14.052;2023-12-20T01:37:07;97910.00;;;5.30;100.00
65276;BME280;51875;49.994;14.052;2023-12-20T01:38:23;97898.91;;;5.20;100.00
65276;BME280;51875;49.994;14.052;2023-12-20T01:39:39;97910.94;;;5.27;100.00
65276;BME280;51875;49.994;14.052;2023-12-20T01:40:55;97904.81;;;5.31;100.00
65276;BME280;51875;49.994;14.052;2023-12-20T01:42:11;97903.25;;;5.19;100.00
65276;BME280;51875;49.994;14.052;2023-12-20T01:43:27;97905.47;;;5.44;100.00
65276;BME280;51875;49.994;14.052;2023-12-20T01:44:43;97908.03;;;5.47;100.00
65276;BME280;51875;49.994;14.052;2023-12-20T01:45:59;97898.59;;;5.40;100.00
65276;BME280;51875;49.994;14.052;2023-12-20T01:47:16;97893.16;;;5.56;100.00
65276;BME280;51875;49.994;14.052;2023-12-20T01:48:32;97888.91;;;5.51;100.00
65276;BME280;51875;49.994;14.052;2023-12-20T01:49:49;97895.28;;;5.32;100.00
65276;BME280;51875;49.994;14.052;2023-12-20T01:51:05;97886.56;;;5.36;100.00
65276;BME280;51875;49.994;14.052;2023-12-20T01:52:21;97894.38;;;5.34;100.00
65276;BME280;51875;49.994;14.052;2023-12-20T01:53:38;97890.09;;;5.32;100.00
65276;BME280;51875;49.994;14.052;2023-12-20T01:54:55;97889.34;;;5.23;100.00
65276;BME280;51875;49.994;14.052;2023-12-20T01:56:16;97885.66;;;5.39;100.00
65276;BME280;51875;49.994;14.052;2023-12-20T01:57:33;97887.34;;;5.41;100.00
65276;BME280;51875;49.994;14.052;2023-12-20T01:58:49;97883.22;;;5.28;100.00
65276;BME280;51875;49.994;14.052;2023-12-20T02:00:06;97881.38;;;5.36;100.00
65276;BME280;51875;49.994;14.052;2023-12-20T02:01:22;97886.75;;;5.25;100.00
65276;BME280;51875;49.994;14.052;2023-12-20T02:02:41;97883.72;;;5.51;100.00
65276;BME280;51875;49.994;14.052;2023-12-20T02:03:57;97882.19;;;5.40;100.00
65276;BME280;51875;49.994;14.052;2023-12-20T02:05:13;97883.09;;;5.37;100.00
65276;BME280;51875;49.994;14.052;2023-12-20T02:06:30;97885.63;;;5.40;100.00
65276;BME280;51875;49.994;14.052;2023-12-20T02:07:47;97884.75;;;5.41;100.00
65276;BME280;51875;49.994;14.052;2023-12-20T02:09:03;97882.03;;;5.49;100.00
65276;BME280;51875;49.994;14.052;2023-12-20T02:10:19;97886.50;;;5.41;100.00
65276;BME280;51875;49.994;14.052;2023-12-20T02:11:35;97882.31;;;5.30;100.00
65276;BME280;51875;49.994;14.052;2023-12-20T02:12:52;97879.47;;;5.47;100.00
65276;BME280;51875;49.994;14.052;2023-12-20T02:14:07;97881.19;;;5.48;100.00
65276;BME280;51875;49.994;14.052;2023-12-20T02:15:24;97888.47;;;5.25;100.00
65276;BME280;51875;49.994;14.052;2023-12-20T02:16:39;97877.91;;;5.35;100.00
65276;BME280;51875;49.994;14.052;2023-12-20T02:17:56;97880.97;;;5.61;100.00
65276;BME280;51875;49.994;14.052;2023-12-20T02:19:15;97882.00;;;5.52;100.00
65276;BME280;51875;49.994;14.052;2023-12-20T02:20:31;97883.03;;;5.40;100.00
65276;BME280;51875;49.994;14.052;2023-12-20T02:21:47;97877.91;;;5.37;100.00
65276;BME280;51875;49.994;14.052;2023-12-20T02:23:03;97876.41;;;5.75;100.00
65276;BME280;51875;49.994;14.052;2023-12-20T02:24:19;97874.44;;;5.88;100.00
65276;BME280;51875;49.994;14.052;2023-12-20T02:25:35;97876.13;;;5.89;100.00
65276;BME280;51875;49.994;14.052;2023-12-20T02:26:51;97871.53;;;5.55;100.00
65276;BME280;51875;49.994;14.052;2023-12-20T02:28:07;97871.88;;;5.85;100.00
65276;BME280;51875;49.994;14.052;2023-12-20T02:29:23;97869.31;;;5.84;100.00
65276;BME280;51875;49.994;14.052;2023-12-20T02:30:39;97869.50;;;5.73;100.00
65276;BME280;51875;49.994;14.052;2023-12-20T02:31:55;97870.41;;;5.72;100.00
65276;BME280;51875;49.994;14.052;2023-12-20T02:33:12;97867.00;;;5.68;100.00
65276;BME280;51875;49.994;14.052;2023-12-20T02:34:29;97868.97;;;5.54;100.00
65276;BME280;51875;49.994;14.052;2023-12-20T02:35:45;97864.66;;;5.53;100.00
65276;BME280;51875;49.994;14.052;2023-12-20T02:37:01;97866.34;;;5.55;100.00
65276;BME280;51875;49.994;14.052;2023-12-20T02:38:17;97862.19;;;5.45;100.00
65276;BME280;51875;49.994;14.052;2023-12-20T02:39:33;97865.22;;;5.70;100.00
65276;BME280;51875;49.994;14.052;2023-12-20T02:40:49;97866.28;;;5.60;100.00
65276;BME280;51875;49.994;14.052;2023-12-20T02:42:05;97868.25;;;5.45;100.00
65276;BME280;51875;49.994;14.052;2023-12-20T02:43:20;97861.56;;;5.29;100.00
65276;BME280;51875;49.994;14.052;2023-12-20T02:44:37;97860.63;;;5.34;100.00
65276;BME280;51875;49.994;14.052;2023-12-20T02:45:52;97857.97;;;5.39;100.00
65276;BME280;51875;49.994;14.052;2023-12-20T02:47:08;97863.91;;;5.44;100.00
65276;BME280;51875;49.994;14.052;2023-12-20T02:48:24;97864.81;;;5.43;100.00
65276;BME280;51875;49.994;14.052;2023-12-20T02:49:40;97863.97;;;5.43;100.00
65276;BME280;51875;49.994;14.052;2023-12-20T02:50:56;97864.22;;;5.27;100.00
65276;BME280;51875;49.994;14.052;2023-12-20T02:52:12;97856.34;;;5.32;100.00
65276;BME280;51875;49.994;14.052;2023-12-20T02:53:28;97854.59;;;5.34;100.00
65276;BME280;51875;49.994;14.052;2023-12-20T02:54:44;97856.63;;;5.15;100.00
65276;BME280;51875;49.994;14.052;2023-12-20T02:56:00;97857.00;;;5.43;100.00
65276;BME280;51875;49.994;14.052;2023-12-20T02:57:16;97855.31;;;5.42;100.00
65276;BME280;51875;49.994;14.052;2023-12-20T02:58:32;97845.22;;;5.23;100.00
65276;BME280;51875;49.994;14.052;2023-12-20T02:59:48;97846.94;;;5.25;100.00
65276;BME280;51875;49.994;14.052;2023-12-20T03:01:04;97854.13;;;5.60;100.00
65276;BME280;51875;49.994;14.052;2023-12-20T03:02:20;97860.06;;;5.15;100.00
65276;BME280;51875;49.994;14.052;2023-12-20T03:03:36;97851.16;;;5.32;100.00
65276;BME280;51875;49.994;14.052;2023-12-20T03:04:52;97851.47;;;5.12;100.00
65276;BME280;51875;49.994;14.052;2023-12-20T03:06:08;97853.66;;;5.38;100.00
65276;BME280;51875;49.994;14.052;2023-12-20T03:07:24;97853.44;;;5.50;100.00
65276;BME280;51875;49.994;14.052;2023-12-20T03:08:39;97856.47;;;5.24;100.00
65276;BME280;51875;49.994;14.052;2023-12-20T03:09:58;97849.34;;;5.35;100.00
65276;BME280;51875;49.994;14.052;2023-12-20T03:11:14;97864.22;;;5.27;100.00
65276;BME280;51875;49.994;14.052;2023-12-20T03:12:30;97857.25;;;5.28;100.00
65276;BME280;51875;49.994;14.052;2023-12-20T03:13:46;97858.31;;;5.17;100.00
65276;BME280;51875;49.994;14.052;2023-12-20T03:15:02;97844.34;;;5.23;100.00
65276;BME280;51875;49.994;14.052;2023-12-20T03:16:18;97850.63;;;5.09;100.00
65276;BME280;51875;49.994;14.052;2023-12-20T03:17:34;97852.28;;;5.15;100.00
65276;BME280;51875;49.994;14.052;2023-12-20T03:18:50;97856.56;;;5.16;100.00
65276;BME280;51875;49.994;14.052;2023-12-20T03:20:06;97849.94;;;4.98;100.00
65276;BME280;51875;49.994;14.052;2023-12-20T03:21:23;97856.56;;;5.18;100.00
65276;BME280;51875;49.994;14.052;2023-12-20T03:22:38;97850.41;;;5.23;100.00
65276;BME280;51875;49.994;14.052;2023-12-20T03:23:54;97842.06;;;5.03;100.00
65276;BME280;51875;49.994;14.052;2023-12-20T03:25:10;97849.09;;;4.98;100.00
65276;BME280;51875;49.994;14.052;2023-12-20T03:26:26;97837.88;;;4.97;100.00
65276;BME280;51875;49.994;14.052;2023-12-20T03:27:42;97848.84;;;5.15;100.00
65276;BME280;51875;49.994;14.052;2023-12-20T03:28:58;97853.09;;;5.19;100.00
65276;BME280;51875;49.994;14.052;2023-12-20T03:30:14;97844.53;;;5.14;100.00
65276;BME280;51875;49.994;14.052;2023-12-20T03:31:30;97842.81;;;5.11;100.00
65276;BME280;51875;49.994;14.052;2023-12-20T03:32:47;97848.00;;;5.13;100.00
65276;BME280;51875;49.994;14.052;2023-12-20T03:34:03;97842.16;;;4.98;100.00
65276;BME280;51875;49.994;14.052;2023-12-20T03:35:19;97836.88;;;5.03;100.00
65276;BME280;51875;49.994;14.052;2023-12-20T03:36:34;97832.50;;;5.06;100.00
65276;BME280;51875;49.994;14.052;2023-12-20T03:37:50;97842.13;;;5.00;100.00
65276;BME280;51875;49.994;14.052;2023-12-20T03:39:06;97850.56;;;5.14;100.00
65276;BME280;51875;49.994;14.052;2023-12-20T03:40:22;97837.66;;;5.09;100.00
65276;BME280;51875;49.994;14.052;2023-12-20T03:41:38;97838.63;;;5.04;100.00
65276;BME280;51875;49.994;14.052;2023-12-20T03:42:54;97844.91;;;4.87;100.00
65276;BME280;51875;49.994;14.052;2023-12-20T03:44:10;97844.66;;;5.04;100.00
65276;BME280;51875;49.994;14.052;2023-12-20T03:45:26;97842.94;;;5.03;100.00
65276;BME280;51875;49.994;14.052;2023-12-20T03:46:42;97844.66;;;5.06;100.00
65276;BME280;51875;49.994;14.052;2023-12-20T03:47:58;97838.50;;;5.12;100.00
65276;BME280;51875;49.994;14.052;2023-12-20T03:49:14;97841.25;;;5.01;100.00
65276;BME280;51875;49.994;14.052;2023-12-20T03:50:30;97843.81;;;5.04;100.00
65276;BME280;51875;49.994;14.052;2023-12-20T03:51:46;97843.75;;;5.07;100.00
65276;BME280;51875;49.994;14.052;2023-12-20T03:53:02;97841.09;;;5.12;100.00
65276;BME280;51875;49.994;14.052;2023-12-20T03:54:18;97845.66;;;4.97;100.00
65276;BME280;51875;49.994;14.052;2023-12-20T03:55:34;97835.38;;;4.89;100.00
65276;BME280;51875;49.994;14.052;2023-12-20T03:56:50;97835.94;;;5.08;100.00
65276;BME280;51875;49.994;14.052;2023-12-20T03:58:06;97834.03;;;5.20;100.00
65276;BME280;51875;49.994;14.052;2023-12-20T03:59:22;97831.50;;;5.17;100.00
65276;BME280;51875;49.994;14.052;2023-12-20T04:00:38;97833.44;;;5.04;100.00
65276;BME280;51875;49.994;14.052;2023-12-20T04:01:54;97838.63;;;5.04;100.00
65276;BME280;51875;49.994;14.052;2023-12-20T04:03:09;97834.03;;;5.21;100.00
65276;BME280;51875;49.994;14.052;2023-12-20T04:04:28;97838.84;;;4.88;100.00
65276;BME280;51875;49.994;14.052;2023-12-20T04:05:44;97841.22;;;5.04;100.00
65276;BME280;51875;49.994;14.052;2023-12-20T04:07:00;97845.78;;;4.88;100.00
65276;BME280;51875;49.994;14.052;2023-12-20T04:08:16;97842.25;;;4.93;100.00
65276;BME280;51875;49.994;14.052;2023-12-20T04:09:32;97845.84;;;4.83;100.00
65276;BME280;51875;49.994;14.052;2023-12-20T04:10:48;97841.47;;;4.87;100.00
65276;BME280;51875;49.994;14.052;2023-12-20T04:12:04;97850.84;;;4.95;100.00
65276;BME280;51875;49.994;14.052;2023-12-20T04:13:21;97846.75;;;5.35;100.00
65276;BME280;51875;49.994;14.052;2023-12-20T04:14:37;97846.34;;;5.07;100.00
65276;BME280;51875;49.994;14.052;2023-12-20T04:15:53;97848.09;;;5.06;100.00
65276;BME280;51875;49.994;14.052;2023-12-20T04:17:09;97848.47;;;4.80;100.00
65276;BME280;51875;49.994;14.052;2023-12-20T04:18:25;97850.97;;;4.86;100.00
65276;BME280;51875;49.994;14.052;2023-12-20T04:19:41;97855.16;;;4.98;100.00
65276;BME280;51875;49.994;14.052;2023-12-20T04:20:57;97849.09;;;4.98;100.00
65276;BME280;51875;49.994;14.052;2023-12-20T04:22:13;97855.97;;;5.00;100.00
65276;BME280;51875;49.994;14.052;2023-12-20T04:23:29;97854.66;;;5.28;100.00
65276;BME280;51875;49.994;14.052;2023-12-20T04:24:45;97861.22;;;4.95;100.00
65276;BME280;51875;49.994;14.052;2023-12-20T04:26:01;97854.38;;;4.91;100.00
65276;BME280;51875;49.994;14.052;2023-12-20T04:27:17;97857.97;;;4.81;100.00
65276;BME280;51875;49.994;14.052;2023-12-20T04:28:33;97851.16;;;4.74;100.00
65276;BME280;51875;49.994;14.052;2023-12-20T04:29:49;97861.34;;;4.88;100.00
65276;BME280;51875;49.994;14.052;2023-12-20T04:31:04;97856.97;;;4.90;100.00
65276;BME280;51875;49.994;14.052;2023-12-20T04:32:20;97861.50;;;4.75;100.00
65276;BME280;51875;49.994;14.052;2023-12-20T04:33:36;97867.63;;;4.70;100.00
65276;BME280;51875;49.994;14.052;2023-12-20T04:34:52;97864.22;;;4.68;100.00
65276;BME280;51875;49.994;14.052;2023-12-20T04:36:08;97864.00;;;4.83;100.00
65276;BME280;51875;49.994;14.052;2023-12-20T04:37:25;97862.16;;;4.90;100.00
65276;BME280;51875;49.994;14.052;2023-12-20T04:38:41;97858.97;;;4.72;100.00
65276;BME280;51875;49.994;14.052;2023-12-20T04:39:57;97862.41;;;4.73;100.00
65276;BME280;51875;49.994;14.052;2023-12-20T04:41:12;97860.72;;;4.70;100.00
65276;BME280;51875;49.994;14.052;2023-12-20T04:42:31;97862.50;;;4.66;100.00
65276;BME280;51875;49.994;14.052;2023-12-20T04:43:47;97860.84;;;4.61;100.00
65276;BME280;51875;49.994;14.052;2023-12-20T04:45:04;97847.72;;;4.72;100.00
65276;BME280;51875;49.994;14.052;2023-12-20T04:46:20;97860.50;;;4.84;100.00
65276;BME280;51875;49.994;14.052;2023-12-20T04:47:36;97859.75;;;4.77;100.00
65276;BME280;51875;49.994;14.052;2023-12-20T04:48:52;97862.50;;;4.65;100.00
65276;BME280;51875;49.994;14.052;2023-12-20T04:50:08;97863.28;;;4.72;100.00
65276;BME280;51875;49.994;14.052;2023-12-20T04:51:25;97867.38;;;4.88;100.00
65276;BME280;51875;49.994;14.052;2023-12-20T04:52:42;97864.88;;;4.84;100.00
65276;BME280;51875;49.994;14.052;2023-12-20T04:53:57;97862.34;;;4.77;100.00
65276;BME280;51875;49.994;14.052;2023-12-20T04:55:13;97865.19;;;4.59;100.00
65276;BME280;51875;49.994;14.052;2023-12-20T04:56:29;97866.81;;;4.66;100.00
65276;BME280;51875;49.994;14.052;2023-12-20T04:57:45;97854.63;;;4.73;100.00
65276;BME280;51875;49.994;14.052;2023-12-20T04:59:01;97858.97;;;4.71;100.00
65276;BME280;51875;49.994;14.052;2023-12-20T05:00:17;97860.56;;;4.79;100.00
65276;BME280;51875;49.994;14.052;2023-12-20T05:01:33;97858.97;;;4.71;100.00
65276;BME280;51875;49.994;14.052;2023-12-20T05:02:49;97862.28;;;4.80;100.00
65276;BME280;51875;49.994;14.052;2023-12-20T05:04:05;97860.78;;;4.65;100.00
65276;BME280;51875;49.994;14.052;2023-12-20T05:05:21;97858.94;;;4.74;100.00
65276;BME280;51875;49.994;14.052;2023-12-20T05:06:37;97866.06;;;4.58;100.00
65276;BME280;51875;49.994;14.052;2023-12-20T05:07:53;97859.28;;;4.49;100.00
65276;BME280;51875;49.994;14.052;2023-12-20T05:09:09;97871.34;;;4.50;100.00
65276;BME280;51875;49.994;14.052;2023-12-20T05:10:25;97866.81;;;4.68;100.00
65276;BME280;51875;49.994;14.052;2023-12-20T05:11:42;97867.63;;;4.70;100.00
65276;BME280;51875;49.994;14.052;2023-12-20T05:12:58;97862.59;;;4.57;100.00
65276;BME280;51875;49.994;14.052;2023-12-20T05:14:14;97866.69;;;4.77;100.00
65276;BME280;51875;49.994;14.052;2023-12-20T05:15:30;97864.97;;;4.76;100.00
65276;BME280;51875;49.994;14.052;2023-12-20T05:16:46;97868.59;;;4.62;100.00
65276;BME280;51875;49.994;14.052;2023-12-20T05:18:02;97864.75;;;4.91;100.00
65276;BME280;51875;49.994;14.052;2023-12-20T05:19:18;97877.00;;;4.80;100.00
65276;BME280;51875;49.994;14.052;2023-12-20T05:20:34;97870.22;;;4.71;100.00
65276;BME280;51875;49.994;14.052;2023-12-20T05:21:50;97869.28;;;4.74;100.00
65276;BME280;51875;49.994;14.052;2023-12-20T05:23:06;97870.22;;;4.70;100.00
65276;BME280;51875;49.994;14.052;2023-12-20T05:24:22;97880.53;;;4.74;100.00
65276;BME280;51875;49.994;14.052;2023-12-20T05:25:38;97879.88;;;4.58;100.00
65276;BME280;51875;49.994;14.052;2023-12-20T05:26:54;97877.41;;;4.49;100.00
65276;BME280;51875;49.994;14.052;2023-12-20T05:28:10;97876.97;;;4.83;100.00
65276;BME280;51875;49.994;14.052;2023-12-20T05:29:26;97878.97;;;4.62;100.00
65276;BME280;51875;49.994;14.052;2023-12-20T05:30:42;97878.88;;;4.69;100.00
65276;BME280;51875;49.994;14.052;2023-12-20T05:31:58;97879.09;;;4.53;100.00
65276;BME280;51875;49.994;14.052;2023-12-20T05:33:14;97880.69;;;4.63;100.00
65276;BME280;51875;49.994;14.052;2023-12-20T05:34:30;97883.13;;;4.74;100.00
65276;BME280;51875;49.994;14.052;2023-12-20T05:35:46;97881.53;;;4.65;100.00
65276;BME280;51875;49.994;14.052;2023-12-20T05:37:03;97883.22;;;4.68;100.00
65276;BME280;51875;49.994;14.052;2023-12-20T05:38:19;97875.91;;;4.95;100.00
65276;BME280;51875;49.994;14.052;2023-12-20T05:39:34;97878.91;;;4.67;100.00
65276;BME280;51875;49.994;14.052;2023-12-20T05:40:50;97881.47;;;4.70;100.00
65276;BME280;51875;49.994;14.052;2023-12-20T05:42:06;97872.47;;;4.96;100.00
65276;BME280;51875;49.994;14.052;2023-12-20T05:43:22;97875.91;;;4.97;100.00
65276;BME280;51875;49.994;14.052;2023-12-20T05:44:38;97875.28;;;4.79;100.00
65276;BME280;51875;49.994;14.052;2023-12-20T05:45:54;97876.03;;;4.89;100.00
65276;BME280;51875;49.994;14.052;2023-12-20T05:47:10;97884.91;;;4.71;100.00
65276;BME280;51875;49.994;14.052;2023-12-20T05:48:26;97879.03;;;4.56;100.00
65276;BME280;51875;49.994;14.052;2023-12-20T05:49:44;97880.91;;;4.48;100.00
65276;BME280;51875;49.994;14.052;2023-12-20T05:51:00;97878.72;;;4.81;100.00
65276;BME280;51875;49.994;14.052;2023-12-20T05:52:16;97877.72;;;4.90;100.00
65276;BME280;51875;49.994;14.052;2023-12-20T05:53:31;97887.38;;;4.78;100.00
65276;BME280;51875;49.994;14.052;2023-12-20T05:54:47;97886.50;;;4.83;100.00
65276;BME280;51875;49.994;14.052;2023-12-20T05:56:04;97884.59;;;4.94;100.00
65276;BME280;51875;49.994;14.052;2023-12-20T05:57:20;97892.47;;;4.86;100.00
65276;BME280;51875;49.994;14.052;2023-12-20T05:58:36;97880.75;;;4.57;100.00
65276;BME280;51875;49.994;14.052;2023-12-20T05:59:52;97888.09;;;4.90;100.00
65276;BME280;51875;49.994;14.052;2023-12-20T06:01:08;97888.53;;;4.57;100.00
65276;BME280;51875;49.994;14.052;2023-12-20T06:02:24;97887.63;;;4.61;100.00
65276;BME280;51875;49.994;14.052;2023-12-20T06:03:41;97888.53;;;4.59;100.00
65276;BME280;51875;49.994;14.052;2023-12-20T06:04:57;97887.75;;;4.50;100.00
65276;BME280;51875;49.994;14.052;2023-12-20T06:06:13;97893.34;;;4.87;100.00
65276;BME280;51875;49.994;14.052;2023-12-20T06:07:29;97888.38;;;4.71;100.00
65276;BME280;51875;49.994;14.052;2023-12-20T06:08:45;97892.94;;;4.52;100.00
65276;BME280;51875;49.994;14.052;2023-12-20T06:10:01;97885.94;;;4.59;100.00
65276;BME280;51875;49.994;14.052;2023-12-20T06:11:17;97887.63;;;4.61;100.00
65276;BME280;51875;49.994;14.052;2023-12-20T06:12:33;97886.75;;;4.62;100.00
65276;BME280;51875;49.994;14.052;2023-12-20T06:13:51;97891.84;;;4.67;100.00
65276;BME280;51875;49.994;14.052;2023-12-20T06:15:09;97885.78;;;4.70;100.00
65276;BME280;51875;49.994;14.052;2023-12-20T06:16:25;97892.09;;;4.48;100.00
65276;BME280;51875;49.994;14.052;2023-12-20T06:17:41;97897.28;;;4.47;100.00
65276;BME280;51875;49.994;14.052;2023-12-20T06:18:57;97891.25;;;4.48;100.00
65276;BME280;51875;49.994;14.052;2023-12-20T06:20:13;97894.44;;;4.67;100.00
65276;BME280;51875;49.994;14.052;2023-12-20T06:21:29;97892.94;;;4.52;100.00
65276;BME280;51875;49.994;14.052;2023-12-20T06:22:45;97897.97;;;4.64;100.00
65276;BME280;51875;49.994;14.052;2023-12-20T06:24:01;97898.84;;;4.62;100.00
65276;BME280;51875;49.994;14.052;2023-12-20T06:25:17;97896.19;;;4.66;100.00
65276;BME280;51875;49.994;14.052;2023-12-20T06:26:33;97905.00;;;4.55;100.00
65276;BME280;51875;49.994;14.052;2023-12-20T06:27:49;97904.91;;;4.59;100.00
65276;BME280;51875;49.994;14.052;2023-12-20T06:29:05;97905.25;;;4.33;100.00
65276;BME280;51875;49.994;14.052;2023-12-20T06:30:21;97911.13;;;4.47;100.00
65276;BME280;51875;49.994;14.052;2023-12-20T06:31:37;97904.88;;;4.64;100.00
65276;BME280;51875;49.994;14.052;2023-12-20T06:32:54;97912.16;;;4.32;100.00
65276;BME280;51875;49.994;14.052;2023-12-20T06:34:10;97908.53;;;4.47;100.00
65276;BME280;51875;49.994;14.052;2023-12-20T06:35:26;97913.59;;;4.58;100.00
65276;BME280;51875;49.994;14.052;2023-12-20T06:36:42;97913.63;;;4.55;100.00
65276;BME280;51875;49.994;14.052;2023-12-20T06:37:58;97914.50;;;4.52;100.00